sensor_id;sensor_type;location;lat;lon;timestamp;pressure;altitude;pressure_sealevel;temperature;humidity
61528;BME280;47395;42.032;-8.634;2024-03-06T00:01:31;76682.00;;;-148.63;38.23
61528;BME280;47395;42.032;-8.634;2024-03-06T00:03:32;76674.00;;;-148.63;38.23
61528;BME280;47395;42.032;-8.634;2024-03-06T00:05:33;76650.00;;;-148.63;38.06
61528;BME280;47395;42.032;-8.634;2024-03-06T00:07:35;76686.00;;;-148.63;38.11
61528;BME280;47395;42.032;-8.634;2024-03-06T00:09:37;76688.00;;;-148.63;38.21
61528;BME280;47395;42.032;-8.634;2024-03-06T00:11:39;76692.00;;;-148.63;38.04
61528;BME280;47395;42.032;-8.634;2024-03-06T00:13:41;76710.03;;;-148.63;37.87
61528;BME280;47395;42.032;-8.634;2024-03-06T00:15:42;76712.03;;;-148.63;38.06
61528;BME280;47395;42.032;-8.634;2024-03-06T00:17:43;76682.00;;;-148.63;37.95
61528;BME280;47395;42.032;-8.634;2024-03-06T00:19:45;76696.03;;;-148.63;38.02
61528;BME280;47395;42.032;-8.634;2024-03-06T00:21:46;76700.03;;;-148.63;38.01
61528;BME280;47395;42.032;-8.634;2024-03-06T00:23:48;76686.00;;;-148.63;37.58
61528;BME280;47395;42.032;-8.634;2024-03-06T00:25:50;76692.00;;;-148.63;37.97
61528;BME280;47395;42.032;-8.634;2024-03-06T00:27:51;76688.00;;;-148.63;37.79
61528;BME280;47395;42.032;-8.634;2024-03-06T00:29:53;76678.00;;;-148.63;37.66
61528;BME280;47395;42.032;-8.634;2024-03-06T00:31:54;76716.03;;;-148.63;38.01
61528;BME280;47395;42.032;-8.634;2024-03-06T00:33:55;76726.03;;;-148.63;38.34
61528;BME280;47395;42.032;-8.634;2024-03-06T00:35:57;76736.03;;;-148.63;38.24
61528;BME280;47395;42.032;-8.634;2024-03-06T00:38:01;76722.03;;;-148.63;38.38
61528;BME280;47395;42.032;-8.634;2024-03-06T00:40:05;76762.06;;;-148.63;38.92
61528;BME280;47395;42.032;-8.634;2024-03-06T00:42:06;76736.03;;;-148.63;38.56
61528;BME280;47395;42.032;-8.634;2024-03-06T00:44:10;76658.00;;;-148.63;37.76
61528;BME280;47395;42.032;-8.634;2024-03-06T00:46:11;76700.03;;;-148.63;38.11
61528;BME280;47395;42.032;-8.634;2024-03-06T00:48:13;76738.03;;;-148.63;38.58
61528;BME280;47395;42.032;-8.634;2024-03-06T00:50:14;76770.06;;;-148.63;38.94
61528;BME280;47395;42.032;-8.634;2024-03-06T00:52:17;76740.03;;;-148.63;38.78
61528;BME280;47395;42.032;-8.634;2024-03-06T00:54:18;76726.03;;;-148.63;38.52
61528;BME280;47395;42.032;-8.634;2024-03-06T00:56:19;76732.03;;;-148.63;38.60
61528;BME280;47395;42.032;-8.634;2024-03-06T00:58:22;76720.03;;;-148.63;38.40
61528;BME280;47395;42.032;-8.634;2024-03-06T01:00:23;76706.03;;;-148.63;38.19
61528;BME280;47395;42.032;-8.634;2024-03-06T01:02:24;76694.03;;;-148.63;38.17
61528;BME280;47395;42.032;-8.634;2024-03-06T01:04:26;76698.03;;;-148.63;38.04
61528;BME280;47395;42.032;-8.634;2024-03-06T01:06:27;76646.00;;;-148.63;37.87
61528;BME280;47395;42.032;-8.634;2024-03-06T01:08:35;76631.97;;;-148.63;37.64
61528;BME280;47395;42.032;-8.634;2024-03-06T01:10:36;76637.97;;;-148.63;37.68
61528;BME280;47395;42.032;-8.634;2024-03-06T01:12:37;76619.97;;;-148.63;37.50
61528;BME280;47395;42.032;-8.634;2024-03-06T01:14:38;76633.97;;;-148.63;37.89
61528;BME280;47395;42.032;-8.634;2024-03-06T01:16:39;76615.97;;;-148.63;37.89
61528;BME280;47395;42.032;-8.634;2024-03-06T01:18:40;76615.97;;;-148.63;37.70
61528;BME280;47395;42.032;-8.634;2024-03-06T01:20:41;76607.97;;;-148.63;37.60
61528;BME280;47395;42.032;-8.634;2024-03-06T01:22:42;76581.94;;;-148.63;36.90
61528;BME280;47395;42.032;-8.634;2024-03-06T01:24:44;76587.97;;;-148.63;37.14
61528;BME280;47395;42.032;-8.634;2024-03-06T01:26:45;76609.97;;;-148.63;37.52
61528;BME280;47395;42.032;-8.634;2024-03-06T01:28:45;76682.00;;;-148.63;38.25
61528;BME280;47395;42.032;-8.634;2024-03-06T01:30:48;76672.00;;;-148.63;38.45
61528;BME280;47395;42.032;-8.634;2024-03-06T01:32:50;76678.00;;;-148.63;38.55
61528;BME280;47395;42.032;-8.634;2024-03-06T01:34:51;76662.00;;;-148.63;38.25
61528;BME280;47395;42.032;-8.634;2024-03-06T01:36:52;76666.00;;;-148.63;38.47
61528;BME280;47395;42.032;-8.634;2024-03-06T01:38:54;76714.03;;;-148.63;38.52
61528;BME280;47395;42.032;-8.634;2024-03-06T01:40:55;76684.00;;;-148.63;38.66
61528;BME280;47395;42.032;-8.634;2024-03-06T01:42:59;76656.00;;;-148.63;38.31
61528;BME280;47395;42.032;-8.634;2024-03-06T01:45:03;76627.97;;;-148.63;38.07
61528;BME280;47395;42.032;-8.634;2024-03-06T01:47:06;76639.97;;;-148.63;37.97
61528;BME280;47395;42.032;-8.634;2024-03-06T01:49:08;76631.97;;;-148.63;37.86
61528;BME280;47395;42.032;-8.634;2024-03-06T01:51:10;76613.97;;;-148.63;37.96
61528;BME280;47395;42.032;-8.634;2024-03-06T01:53:13;76613.97;;;-148.63;37.92
61528;BME280;47395;42.032;-8.634;2024-03-06T01:55:15;76648.00;;;-148.63;38.21
61528;BME280;47395;42.032;-8.634;2024-03-06T01:57:17;76690.00;;;-148.63;38.53
61528;BME280;47395;42.032;-8.634;2024-03-06T01:59:21;76676.00;;;-148.63;38.55
61528;BME280;47395;42.032;-8.634;2024-03-06T02:01:26;76652.00;;;-148.63;38.28
61528;BME280;47395;42.032;-8.634;2024-03-06T02:03:27;76633.97;;;-148.63;38.18
61528;BME280;47395;42.032;-8.634;2024-03-06T02:05:30;76658.00;;;-148.63;38.42
61528;BME280;47395;42.032;-8.634;2024-03-06T02:07:32;76601.97;;;-148.63;37.99
61528;BME280;47395;42.032;-8.634;2024-03-06T02:09:35;76621.97;;;-148.63;37.98
61528;BME280;47395;42.032;-8.634;2024-03-06T02:11:37;76637.97;;;-148.63;38.28
61528;BME280;47395;42.032;-8.634;2024-03-06T02:13:39;76555.94;;;-148.63;37.39
61528;BME280;47395;42.032;-8.634;2024-03-06T02:15:41;76575.94;;;-148.63;37.72
61528;BME280;47395;42.032;-8.634;2024-03-06T02:17:44;76513.91;;;-148.63;37.01
61528;BME280;47395;42.032;-8.634;2024-03-06T02:19:46;76533.94;;;-148.63;36.92
61528;BME280;47395;42.032;-8.634;2024-03-06T02:21:47;76585.97;;;-148.63;37.49
61528;BME280;47395;42.032;-8.634;2024-03-06T02:23:48;76541.94;;;-148.63;36.91
61528;BME280;47395;42.032;-8.634;2024-03-06T02:25:50;76607.97;;;-148.63;37.31
61528;BME280;47395;42.032;-8.634;2024-03-06T02:27:51;76579.94;;;-148.63;37.07
61528;BME280;47395;42.032;-8.634;2024-03-06T02:29:53;76553.94;;;-148.63;36.87
61528;BME280;47395;42.032;-8.634;2024-03-06T02:31:55;76553.94;;;-148.63;36.88
61528;BME280;47395;42.032;-8.634;2024-03-06T02:33:56;76573.94;;;-148.63;37.15
61528;BME280;47395;42.032;-8.634;2024-03-06T02:35:59;76551.94;;;-148.63;37.11
61528;BME280;47395;42.032;-8.634;2024-03-06T02:38:01;76603.97;;;-148.63;37.21
61528;BME280;47395;42.032;-8.634;2024-03-06T02:40:02;76593.97;;;-148.63;37.61
61528;BME280;47395;42.032;-8.634;2024-03-06T02:42:05;76597.97;;;-148.63;37.64
61528;BME280;47395;42.032;-8.634;2024-03-06T02:44:06;76573.94;;;-148.63;37.29
61528;BME280;47395;42.032;-8.634;2024-03-06T02:46:07;76525.91;;;-148.63;36.99
61528;BME280;47395;42.032;-8.634;2024-03-06T02:48:11;76541.94;;;-148.63;36.72
61528;BME280;47395;42.032;-8.634;2024-03-06T02:50:12;76597.97;;;-148.63;37.44
61528;BME280;47395;42.032;-8.634;2024-03-06T02:52:14;76567.94;;;-148.63;36.98
61528;BME280;47395;42.032;-8.634;2024-03-06T02:54:16;76565.94;;;-148.63;37.05
61528;BME280;47395;42.032;-8.634;2024-03-06T02:56:17;76549.94;;;-148.63;37.13
61528;BME280;47395;42.032;-8.634;2024-03-06T02:58:19;76543.94;;;-148.63;36.92
61528;BME280;47395;42.032;-8.634;2024-03-06T03:00:20;76533.94;;;-148.63;36.86
61528;BME280;47395;42.032;-8.634;2024-03-06T03:02:22;76577.94;;;-148.63;36.96
61528;BME280;47395;42.032;-8.634;2024-03-06T03:04:24;76601.97;;;-148.63;37.27
61528;BME280;47395;42.032;-8.634;2024-03-06T03:06:25;76581.94;;;-148.63;37.27
61528;BME280;47395;42.032;-8.634;2024-03-06T03:08:27;76631.97;;;-148.63;37.60
61528;BME280;47395;42.032;-8.634;2024-03-06T03:10:27;76577.94;;;-148.63;37.13
61528;BME280;47395;42.032;-8.634;2024-03-06T03:12:28;76605.97;;;-148.63;37.51
61528;BME280;47395;42.032;-8.634;2024-03-06T03:14:29;76654.00;;;-148.63;38.28
61528;BME280;47395;42.032;-8.634;2024-03-06T03:16:30;76646.00;;;-148.63;38.20
61528;BME280;47395;42.032;-8.634;2024-03-06T03:18:33;76644.00;;;-148.63;38.12
61528;BME280;47395;42.032;-8.634;2024-03-06T03:20:34;76623.97;;;-148.63;38.01
61528;BME280;47395;42.032;-8.634;2024-03-06T03:22:37;76652.00;;;-148.63;38.19
61528;BME280;47395;42.032;-8.634;2024-03-06T03:24:41;76660.00;;;-148.63;38.31
61528;BME280;47395;42.032;-8.634;2024-03-06T03:26:42;76728.03;;;-148.63;38.72
61528;BME280;47395;42.032;-8.634;2024-03-06T03:28:43;76708.03;;;-148.63;38.99
61528;BME280;47395;42.032;-8.634;2024-03-06T03:30:44;76690.00;;;-148.63;38.67
61528;BME280;47395;42.032;-8.634;2024-03-06T03:32:46;76680.00;;;-148.63;38.76
61528;BME280;47395;42.032;-8.634;2024-03-06T03:34:47;76692.00;;;-148.63;38.97
61528;BME280;47395;42.032;-8.634;2024-03-06T03:36:48;76686.00;;;-148.63;38.72
61528;BME280;47395;42.032;-8.634;2024-03-06T03:38:49;76654.00;;;-148.63;38.46
61528;BME280;47395;42.032;-8.634;2024-03-06T03:40:50;76648.00;;;-148.63;38.36
61528;BME280;47395;42.032;-8.634;2024-03-06T03:42:51;76662.00;;;-148.63;38.61
61528;BME280;47395;42.032;-8.634;2024-03-06T03:44:52;76607.97;;;-148.63;38.07
61528;BME280;47395;42.032;-8.634;2024-03-06T03:46:53;76639.97;;;-148.63;38.24
61528;BME280;47395;42.032;-8.634;2024-03-06T03:48:54;76654.00;;;-148.63;38.53
61528;BME280;47395;42.032;-8.634;2024-03-06T03:50:55;76589.97;;;-148.63;37.98
61528;BME280;47395;42.032;-8.634;2024-03-06T03:52:57;76569.94;;;-148.63;37.48
61528;BME280;47395;42.032;-8.634;2024-03-06T03:55:01;76615.97;;;-148.63;37.94
61528;BME280;47395;42.032;-8.634;2024-03-06T03:57:02;76605.97;;;-148.63;38.11
61528;BME280;47395;42.032;-8.634;2024-03-06T03:59:04;76625.97;;;-148.63;38.41
61528;BME280;47395;42.032;-8.634;2024-03-06T04:01:06;76619.97;;;-148.63;38.12
61528;BME280;47395;42.032;-8.634;2024-03-06T04:03:07;76631.97;;;-148.63;38.39
61528;BME280;47395;42.032;-8.634;2024-03-06T04:05:08;76642.00;;;-148.63;38.50
61528;BME280;47395;42.032;-8.634;2024-03-06T04:07:09;76644.00;;;-148.63;38.56
61528;BME280;47395;42.032;-8.634;2024-03-06T04:09:10;76607.97;;;-148.63;38.23
61528;BME280;47395;42.032;-8.634;2024-03-06T04:11:12;76595.97;;;-148.63;38.04
61528;BME280;47395;42.032;-8.634;2024-03-06T04:13:14;76573.94;;;-148.63;37.77
61528;BME280;47395;42.032;-8.634;2024-03-06T04:15:15;76567.94;;;-148.63;37.70
61528;BME280;47395;42.032;-8.634;2024-03-06T04:17:16;76601.97;;;-148.63;38.17
61528;BME280;47395;42.032;-8.634;2024-03-06T04:19:17;76617.97;;;-148.63;38.31
61528;BME280;47395;42.032;-8.634;2024-03-06T04:21:19;76658.00;;;-148.63;38.64
61528;BME280;47395;42.032;-8.634;2024-03-06T04:23:20;76581.94;;;-148.63;37.81
61528;BME280;47395;42.032;-8.634;2024-03-06T04:25:21;76619.97;;;-148.63;38.95
61528;BME280;47395;42.032;-8.634;2024-03-06T04:27:22;76503.91;;;-148.63;37.40
61528;BME280;47395;42.032;-8.634;2024-03-06T04:29:24;76601.97;;;-148.63;38.11
61528;BME280;47395;42.032;-8.634;2024-03-06T04:31:25;76573.94;;;-148.63;37.95
61528;BME280;47395;42.032;-8.634;2024-03-06T04:33:27;76545.94;;;-148.63;37.92
61528;BME280;47395;42.032;-8.634;2024-03-06T04:35:30;76511.91;;;-148.63;37.11
61528;BME280;47395;42.032;-8.634;2024-03-06T04:37:31;76477.91;;;-148.63;36.90
61528;BME280;47395;42.032;-8.634;2024-03-06T04:39:35;76599.97;;;-148.63;38.23
61528;BME280;47395;42.032;-8.634;2024-03-06T04:41:36;76591.97;;;-148.63;37.68
61528;BME280;47395;42.032;-8.634;2024-03-06T04:43:37;76577.94;;;-148.63;37.80
61528;BME280;47395;42.032;-8.634;2024-03-06T04:45:38;76575.94;;;-148.63;37.68
61528;BME280;47395;42.032;-8.634;2024-03-06T04:47:39;76599.97;;;-148.63;37.96
61528;BME280;47395;42.032;-8.634;2024-03-06T04:49:40;76639.97;;;-148.63;38.39
61528;BME280;47395;42.032;-8.634;2024-03-06T04:51:43;76585.97;;;-148.63;38.01
61528;BME280;47395;42.032;-8.634;2024-03-06T04:53:45;76533.94;;;-148.63;37.38
61528;BME280;47395;42.032;-8.634;2024-03-06T04:55:46;76559.94;;;-148.63;37.84
61528;BME280;47395;42.032;-8.634;2024-03-06T04:57:47;76573.94;;;-148.63;37.73
61528;BME280;47395;42.032;-8.634;2024-03-06T04:59:50;76575.94;;;-148.63;37.57
61528;BME280;47395;42.032;-8.634;2024-03-06T05:04:15;76625.97;;;-148.63;38.20
61528;BME280;47395;42.032;-8.634;2024-03-06T05:06:22;76611.97;;;-148.63;38.20
61528;BME280;47395;42.032;-8.634;2024-03-06T05:08:24;76688.00;;;-148.63;38.85
61528;BME280;47395;42.032;-8.634;2024-03-06T05:10:25;76615.97;;;-148.63;38.14
61528;BME280;47395;42.032;-8.634;2024-03-06T05:12:27;76605.97;;;-148.63;38.01
61528;BME280;47395;42.032;-8.634;2024-03-06T05:14:28;76619.97;;;-148.63;37.89
61528;BME280;47395;42.032;-8.634;2024-03-06T05:16:29;76571.94;;;-148.63;37.46
61528;BME280;47395;42.032;-8.634;2024-03-06T05:18:30;76573.94;;;-148.63;37.37
61528;BME280;47395;42.032;-8.634;2024-03-06T05:20:31;76543.94;;;-148.63;37.26
61528;BME280;47395;42.032;-8.634;2024-03-06T05:22:33;76525.91;;;-148.63;36.85
61528;BME280;47395;42.032;-8.634;2024-03-06T05:24:35;76597.97;;;-148.63;37.46
61528;BME280;47395;42.032;-8.634;2024-03-06T05:26:36;76599.97;;;-148.63;37.43
61528;BME280;47395;42.032;-8.634;2024-03-06T05:28:37;76565.94;;;-148.63;37.02
61528;BME280;47395;42.032;-8.634;2024-03-06T05:30:38;76589.97;;;-148.63;37.53
61528;BME280;47395;42.032;-8.634;2024-03-06T05:32:40;76635.97;;;-148.63;37.87
61528;BME280;47395;42.032;-8.634;2024-03-06T05:34:42;76607.97;;;-148.63;37.64
61528;BME280;47395;42.032;-8.634;2024-03-06T05:36:45;76642.00;;;-148.63;38.25
61528;BME280;47395;42.032;-8.634;2024-03-06T05:38:47;76688.00;;;-148.63;38.47
61528;BME280;47395;42.032;-8.634;2024-03-06T05:40:49;76686.00;;;-148.63;38.73
61528;BME280;47395;42.032;-8.634;2024-03-06T05:42:50;76694.03;;;-148.63;38.61
61528;BME280;47395;42.032;-8.634;2024-03-06T05:44:52;76714.03;;;-148.63;38.99
61528;BME280;47395;42.032;-8.634;2024-03-06T05:46:55;76694.03;;;-148.63;38.61
61528;BME280;47395;42.032;-8.634;2024-03-06T05:48:56;76656.00;;;-148.63;38.25
61528;BME280;47395;42.032;-8.634;2024-03-06T05:50:57;76710.03;;;-148.63;38.50
61528;BME280;47395;42.032;-8.634;2024-03-06T05:52:58;76629.97;;;-148.63;38.20
61528;BME280;47395;42.032;-8.634;2024-03-06T05:55:00;76654.00;;;-148.63;38.42
61528;BME280;47395;42.032;-8.634;2024-03-06T05:57:07;76694.03;;;-148.63;38.80
61528;BME280;47395;42.032;-8.634;2024-03-06T05:59:08;76658.00;;;-148.63;38.50
61528;BME280;47395;42.032;-8.634;2024-03-06T06:01:09;76754.06;;;-148.63;39.48
61528;BME280;47395;42.032;-8.634;2024-03-06T06:03:10;76756.06;;;-148.63;39.86
61528;BME280;47395;42.032;-8.634;2024-03-06T06:05:12;76680.00;;;-148.63;39.10
61528;BME280;47395;42.032;-8.634;2024-03-06T06:07:14;76686.00;;;-148.63;39.10
61528;BME280;47395;42.032;-8.634;2024-03-06T06:09:16;76650.00;;;-148.63;39.09
61528;BME280;47395;42.032;-8.634;2024-03-06T06:11:17;76607.97;;;-148.63;38.39
61528;BME280;47395;42.032;-8.634;2024-03-06T06:13:21;76712.03;;;-148.63;38.94
61528;BME280;47395;42.032;-8.634;2024-03-06T06:15:22;76674.00;;;-148.63;38.74
61528;BME280;47395;42.032;-8.634;2024-03-06T06:17:25;76712.03;;;-148.63;38.58
61528;BME280;47395;42.032;-8.634;2024-03-06T06:19:27;76672.00;;;-148.63;37.94
61528;BME280;47395;42.032;-8.634;2024-03-06T06:21:28;76619.97;;;-148.63;37.54
61528;BME280;47395;42.032;-8.634;2024-03-06T06:23:30;76734.03;;;-148.63;38.61
61528;BME280;47395;42.032;-8.634;2024-03-06T06:25:32;76702.03;;;-148.63;38.76
61528;BME280;47395;42.032;-8.634;2024-03-06T06:27:34;76662.00;;;-148.63;38.52
61528;BME280;47395;42.032;-8.634;2024-03-06T06:29:35;76642.00;;;-148.63;38.13
61528;BME280;47395;42.032;-8.634;2024-03-06T06:31:36;76639.97;;;-148.63;37.96
61528;BME280;47395;42.032;-8.634;2024-03-06T06:33:37;76646.00;;;-148.63;38.06
61528;BME280;47395;42.032;-8.634;2024-03-06T06:35:38;76639.97;;;-148.63;37.92
61528;BME280;47395;42.032;-8.634;2024-03-06T06:37:39;76718.03;;;-148.63;38.77
61528;BME280;47395;42.032;-8.634;2024-03-06T06:39:41;76642.00;;;-148.63;38.20
61528;BME280;47395;42.032;-8.634;2024-03-06T06:41:42;76633.97;;;-148.63;38.01
61528;BME280;47395;42.032;-8.634;2024-03-06T06:43:45;76674.00;;;-148.63;38.22
61528;BME280;47395;42.032;-8.634;2024-03-06T06:45:46;76646.00;;;-148.63;37.96
61528;BME280;47395;42.032;-8.634;2024-03-06T06:47:48;76678.00;;;-148.63;38.14
61528;BME280;47395;42.032;-8.634;2024-03-06T06:49:49;76625.97;;;-148.63;37.95
61528;BME280;47395;42.032;-8.634;2024-03-06T06:51:51;76607.97;;;-148.63;37.73
61528;BME280;47395;42.032;-8.634;2024-03-06T06:53:54;76599.97;;;-148.63;37.65
61528;BME280;47395;42.032;-8.634;2024-03-06T06:55:56;76599.97;;;-148.63;37.76
61528;BME280;47395;42.032;-8.634;2024-03-06T06:57:57;76581.94;;;-148.63;37.42
61528;BME280;47395;42.032;-8.634;2024-03-06T06:59:59;76587.97;;;-148.63;37.31
61528;BME280;47395;42.032;-8.634;2024-03-06T07:02:01;76623.97;;;-148.63;37.18
61528;BME280;47395;42.032;-8.634;2024-03-06T07:04:03;76595.97;;;-148.63;37.33
61528;BME280;47395;42.032;-8.634;2024-03-06T07:06:06;76603.97;;;-148.63;37.41
61528;BME280;47395;42.032;-8.634;2024-03-06T07:08:08;76597.97;;;-148.63;37.73
61528;BME280;47395;42.032;-8.634;2024-03-06T07:10:10;76587.97;;;-148.63;37.49
61528;BME280;47395;42.032;-8.634;2024-03-06T07:12:16;76637.97;;;-148.63;37.92
61528;BME280;47395;42.032;-8.634;2024-03-06T07:14:18;76573.94;;;-148.63;37.43
61528;BME280;47395;42.032;-8.634;2024-03-06T07:16:19;76557.94;;;-148.63;37.16
61528;BME280;47395;42.032;-8.634;2024-03-06T07:18:21;76551.94;;;-148.63;37.10
61528;BME280;47395;42.032;-8.634;2024-03-06T07:20:22;76531.94;;;-148.63;37.15
61528;BME280;47395;42.032;-8.634;2024-03-06T07:22:23;76535.94;;;-148.63;36.90
61528;BME280;47395;42.032;-8.634;2024-03-06T07:24:26;76543.94;;;-148.63;37.08
61528;BME280;47395;42.032;-8.634;2024-03-06T07:26:27;76517.91;;;-148.63;37.05
61528;BME280;47395;42.032;-8.634;2024-03-06T07:28:30;76539.94;;;-148.63;36.93
61528;BME280;47395;42.032;-8.634;2024-03-06T07:30:31;76525.91;;;-148.63;36.93
61528;BME280;47395;42.032;-8.634;2024-03-06T07:32:34;76503.91;;;-148.63;36.86
61528;BME280;47395;42.032;-8.634;2024-03-06T07:34:35;76465.88;;;-148.63;36.61
61528;BME280;47395;42.032;-8.634;2024-03-06T07:36:36;76431.88;;;-148.63;36.21
61528;BME280;47395;42.032;-8.634;2024-03-06T07:38:37;76485.91;;;-148.63;36.34
61528;BME280;47395;42.032;-8.634;2024-03-06T07:40:38;76443.88;;;-148.63;36.03
61528;BME280;47395;42.032;-8.634;2024-03-06T07:42:39;76497.91;;;-148.63;36.36
61528;BME280;47395;42.032;-8.634;2024-03-06T07:44:40;76451.88;;;-148.63;36.37
61528;BME280;47395;42.032;-8.634;2024-03-06T07:46:43;76397.84;;;-148.63;35.76
61528;BME280;47395;42.032;-8.634;2024-03-06T07:48:46;76397.84;;;-148.63;35.79
61528;BME280;47395;42.032;-8.634;2024-03-06T07:50:49;76385.84;;;-148.63;35.38
61528;BME280;47395;42.032;-8.634;2024-03-06T07:52:51;76341.81;;;-148.63;35.62
61528;BME280;47395;42.032;-8.634;2024-03-06T07:54:53;76317.81;;;-148.63;35.00
61528;BME280;47395;42.032;-8.634;2024-03-06T07:56:54;76295.81;;;-148.63;34.96
61528;BME280;47395;42.032;-8.634;2024-03-06T07:58:56;76269.78;;;-148.63;34.77
61528;BME280;47395;42.032;-8.634;2024-03-06T08:00:59;76285.81;;;-148.63;34.52
61528;BME280;47395;42.032;-8.634;2024-03-06T08:03:01;76249.78;;;-148.63;34.58
61528;BME280;47395;42.032;-8.634;2024-03-06T08:05:04;76213.75;;;-148.63;34.08
61528;BME280;47395;42.032;-8.634;2024-03-06T08:07:05;76275.78;;;-148.63;34.15
61528;BME280;47395;42.032;-8.634;2024-03-06T08:09:06;76275.78;;;-148.63;34.71
61528;BME280;47395;42.032;-8.634;2024-03-06T08:11:10;76301.81;;;-148.63;34.53
61528;BME280;47395;42.032;-8.634;2024-03-06T08:13:12;76243.78;;;-148.63;34.09
61528;BME280;47395;42.032;-8.634;2024-03-06T08:15:14;76209.75;;;-148.63;33.83
61528;BME280;47395;42.032;-8.634;2024-03-06T08:17:15;76145.72;;;-148.63;33.97
61528;BME280;47395;42.032;-8.634;2024-03-06T08:19:16;76147.72;;;-148.63;33.80
61528;BME280;47395;42.032;-8.634;2024-03-06T08:21:18;76187.75;;;-148.63;33.95
61528;BME280;47395;42.032;-8.634;2024-03-06T08:23:20;76163.75;;;-148.63;33.93
61528;BME280;47395;42.032;-8.634;2024-03-06T08:25:22;76189.75;;;-148.63;33.89
61528;BME280;47395;42.032;-8.634;2024-03-06T08:27:23;76117.72;;;-148.63;33.68
61528;BME280;47395;42.032;-8.634;2024-03-06T08:29:25;76141.72;;;-148.63;33.37
61528;BME280;47395;42.032;-8.634;2024-03-06T08:31:26;76069.69;;;-148.63;32.93
61528;BME280;47395;42.032;-8.634;2024-03-06T08:33:27;75919.63;;;-148.63;32.39
61528;BME280;47395;42.032;-8.634;2024-03-06T08:35:29;75915.63;;;-148.63;31.88
61528;BME280;47395;42.032;-8.634;2024-03-06T08:37:31;75841.59;;;-148.63;31.45
61528;BME280;47395;42.032;-8.634;2024-03-06T08:39:32;75691.56;;;-148.63;30.85
61528;BME280;47395;42.032;-8.634;2024-03-06T08:41:34;75557.50;;;-148.63;29.78
61528;BME280;47395;42.032;-8.634;2024-03-06T08:43:35;75463.47;;;-148.63;28.57
61528;BME280;47395;42.032;-8.634;2024-03-06T08:45:36;75475.50;;;-148.63;28.71
61528;BME280;47395;42.032;-8.634;2024-03-06T08:47:39;75475.50;;;-148.63;28.33
61528;BME280;47395;42.032;-8.634;2024-03-06T08:49:42;75325.44;;;-148.63;27.59
61528;BME280;47395;42.032;-8.634;2024-03-06T08:51:43;75219.44;;;-148.63;26.86
61528;BME280;47395;42.032;-8.634;2024-03-06T08:53:44;75121.41;;;-148.63;26.77
61528;BME280;47395;42.032;-8.634;2024-03-06T08:55:45;75085.41;;;-148.63;26.29
61528;BME280;47395;42.032;-8.634;2024-03-06T08:57:47;75325.44;;;-148.63;27.58
61528;BME280;47395;42.032;-8.634;2024-03-06T08:59:51;75281.44;;;-148.63;27.24
61528;BME280;47395;42.032;-8.634;2024-03-06T09:01:54;75397.47;;;-148.63;27.64
61528;BME280;47395;42.032;-8.634;2024-03-06T09:03:58;75429.47;;;-148.63;28.29
61528;BME280;47395;42.032;-8.634;2024-03-06T09:05:59;75333.44;;;-148.63;27.73
61528;BME280;47395;42.032;-8.634;2024-03-06T09:08:00;75285.44;;;-148.63;27.72
61528;BME280;47395;42.032;-8.634;2024-03-06T09:10:01;75325.44;;;-148.63;27.65
61528;BME280;47395;42.032;-8.634;2024-03-06T09:12:03;75439.47;;;-148.63;28.38
61528;BME280;47395;42.032;-8.634;2024-03-06T09:14:06;75489.50;;;-148.63;28.84
61528;BME280;47395;42.032;-8.634;2024-03-06T09:16:07;75493.50;;;-148.63;28.92
61528;BME280;47395;42.032;-8.634;2024-03-06T09:18:09;75247.44;;;-148.63;27.58
61528;BME280;47395;42.032;-8.634;2024-03-06T09:20:10;75231.44;;;-148.63;27.35
61528;BME280;47395;42.032;-8.634;2024-03-06T09:22:11;75327.44;;;-148.63;27.87
61528;BME280;47395;42.032;-8.634;2024-03-06T09:24:14;75219.44;;;-148.63;27.58
61528;BME280;47395;42.032;-8.634;2024-03-06T09:26:15;75091.41;;;-148.63;26.61
61528;BME280;47395;42.032;-8.634;2024-03-06T09:28:16;74937.38;;;-148.63;25.54
61528;BME280;47395;42.032;-8.634;2024-03-06T09:30:18;74821.34;;;-148.63;25.10
61528;BME280;47395;42.032;-8.634;2024-03-06T09:32:20;74693.34;;;-148.63;24.64
61528;BME280;47395;42.032;-8.634;2024-03-06T09:34:24;74581.34;;;-148.63;24.26
61528;BME280;47395;42.032;-8.634;2024-03-06T09:36:24;74503.34;;;-148.63;23.46
61528;BME280;47395;42.032;-8.634;2024-03-06T09:38:26;74353.31;;;-148.63;23.22
61528;BME280;47395;42.032;-8.634;2024-03-06T09:40:28;74447.31;;;-148.63;23.12
61528;BME280;47395;42.032;-8.634;2024-03-06T09:42:30;74613.34;;;-148.63;24.04
61528;BME280;47395;42.032;-8.634;2024-03-06T09:44:31;74563.34;;;-148.63;24.47
61528;BME280;47395;42.032;-8.634;2024-03-06T09:46:32;74489.34;;;-148.63;23.52
61528;BME280;47395;42.032;-8.634;2024-03-06T09:48:33;74631.34;;;-148.63;23.97
61528;BME280;47395;42.032;-8.634;2024-03-06T09:50:35;74791.34;;;-148.63;25.04
61528;BME280;47395;42.032;-8.634;2024-03-06T09:52:39;74819.34;;;-148.63;25.10
61528;BME280;47395;42.032;-8.634;2024-03-06T09:54:42;74831.34;;;-148.63;24.93
61528;BME280;47395;42.032;-8.634;2024-03-06T09:56:47;74841.34;;;-148.63;25.57
61528;BME280;47395;42.032;-8.634;2024-03-06T09:58:49;74659.34;;;-148.63;24.99
61528;BME280;47395;42.032;-8.634;2024-03-06T10:00:51;74645.34;;;-148.63;24.43
61528;BME280;47395;42.032;-8.634;2024-03-06T10:03:01;74645.34;;;-148.63;24.15
61528;BME280;47395;42.032;-8.634;2024-03-06T10:05:23;74567.34;;;-148.63;23.95
61528;BME280;47395;42.032;-8.634;2024-03-06T10:07:26;74561.34;;;-148.63;23.16
61528;BME280;47395;42.032;-8.634;2024-03-06T10:09:28;74653.34;;;-148.63;24.27
61528;BME280;47395;42.032;-8.634;2024-03-06T10:11:41;74871.38;;;-148.63;25.49
61528;BME280;47395;42.032;-8.634;2024-03-06T10:13:43;74797.34;;;-148.63;24.98
61528;BME280;47395;42.032;-8.634;2024-03-06T10:16:00;74663.34;;;-148.63;24.52
61528;BME280;47395;42.032;-8.634;2024-03-06T10:18:14;74681.34;;;-148.63;23.80
61528;BME280;47395;42.032;-8.634;2024-03-06T10:20:22;74881.38;;;-148.63;24.44
61528;BME280;47395;42.032;-8.634;2024-03-06T10:22:25;74945.38;;;-148.63;24.83
61528;BME280;47395;42.032;-8.634;2024-03-06T10:24:29;74981.38;;;-148.63;25.63